Time;durP1;ratioP1;P1;durP2;ratioP2;P2;SDS_P1;SDS_P2;PMS_P1;PMS_P2;Temp;Humidity;BMP_temperature;BMP_pressure;BME280_temperature;BME280_humidity;BME280_pressure;Samples;Min_cycle;Max_cycle;Signal;HPM_P1;HPM_P2
2021/09/01 00:00:58;;;;;;;;;;;16.90;99.90;;;;;;5054586;28;20074;-81
2021/09/01 00:03:24;;;;;;;18.48;6.68;;;16.90;99.90;;;;;;5054141;28;19959;-81
2021/09/01 00:05:50;;;;;;;;;;;16.90;99.90;;;;;;5054710;28;20029;-81
2021/09/01 00:08:15;;;;;;;25.40;7.75;;;16.80;99.90;;;;;;5054067;28;20367;-81
2021/09/01 00:10:41;;;;;;;;;;;16.80;99.90;;;;;;5054586;28;20074;-81
2021/09/01 00:13:07;;;;;;;23.05;7.43;;;16.90;99.90;;;;;;5053946;28;19951;-81
2021/09/01 00:15:33;;;;;;;;;;;16.80;99.90;;;;;;5054483;28;20111;-80
2021/09/01 00:17:58;;;;;;;17.00;6.53;;;16.90;99.90;;;;;;5053866;28;20029;-81
2021/09/01 00:20:26;;;;;;;;;;;16.90;99.90;;;;;;5054495;28;20021;-81
2021/09/01 00:22:52;;;;;;;18.90;6.50;;;16.70;99.90;;;;;;5052576;28;19947;-80
2021/09/01 00:25:18;;;;;;;20.30;6.78;;;16.60;99.90;;;;;;5053640;28;20036;-82
2021/09/01 00:27:44;;;;;;;;;;;16.70;99.90;;;;;;5054132;28;20021;-81
2021/09/01 00:30:10;;;;;;;24.30;7.50;;;16.80;99.90;;;;;;5053747;28;19908;-80
2021/09/01 00:32:36;;;;;;;23.85;7.25;;;16.80;99.90;;;;;;5053582;28;20020;-81
2021/09/01 00:35:01;;;;;;;;;;;16.70;99.90;;;;;;5054241;28;20071;-81
2021/09/01 00:37:27;;;;;;;22.45;7.70;;;16.50;99.90;;;;;;5053648;28;20404;-82
2021/09/01 00:39:53;;;;;;;;;;;16.60;99.90;;;;;;5053904;28;20032;-81
2021/09/01 00:42:19;;;;;;;24.48;7.65;;;16.50;99.90;;;;;;5053902;28;19916;-81
2021/09/01 00:44:46;;;;;;;;;;;16.50;99.90;;;;;;5053840;28;20032;-80
2021/09/01 00:47:18;;;;;;;18.92;6.93;;;16.50;99.90;;;;;;5052150;28;19905;-80
2021/09/01 00:49:44;;;;;;;19.60;7.47;;;16.60;99.90;;;;;;5053433;28;20028;-81
2021/09/01 00:52:12;;;;;;;18.35;7.47;;;16.50;99.90;;;;;;5053338;28;20060;-81
2021/09/01 00:54:38;;;;;;;16.80;6.50;;;16.40;99.90;;;;;;5051800;28;20033;-81
2021/09/01 00:57:06;;;;;;;21.35;7.07;;;16.40;99.90;;;;;;5053218;28;20490;-81
2021/09/01 00:59:35;;;;;;;23.45;7.22;;;16.30;99.90;;;;;;5053235;28;20079;-81
2021/09/01 01:02:05;;;;;;;21.90;6.90;;;16.30;99.90;;;;;;5053254;28;20025;-80
2021/09/01 01:04:32;;;;;;;20.58;7.03;;;16.30;99.90;;;;;;5053003;28;20433;-81
2021/09/01 01:07:12;;;;;;;22.38;8.43;;;16.20;99.90;;;;;;5053385;28;20136;-80
2021/09/01 01:09:40;;;;;;;18.90;7.20;;;16.10;99.90;;;;;;5053311;28;20430;-80
2021/09/01 01:12:10;;;;;;;17.83;6.75;;;16.20;99.90;;;;;;5053091;28;20025;-80
2021/09/01 01:14:48;;;;;;;22.80;7.72;;;16.30;99.90;;;;;;5053107;28;20025;-82
2021/09/01 01:17:16;;;;;;;19.13;7.45;;;16.20;99.90;;;;;;5051553;28;20385;-81
2021/09/01 01:19:46;;;;;;;21.73;7.85;;;16.20;99.90;;;;;;5053157;28;20071;-81
2021/09/01 01:22:14;;;;;;;18.08;7.38;;;16.20;99.90;;;;;;5053158;28;20116;-80
2021/09/01 01:25:05;;;;;;;18.38;7.53;;;16.30;99.90;;;;;;5052826;28;20021;-80
2021/09/01 01:27:35;;;;;;;20.88;7.72;;;16.00;99.90;;;;;;5052607;28;20041;-81
2021/09/01 01:30:27;;;;;;;23.33;7.13;;;16.10;99.90;;;;;;5053108;28;20060;-80
2021/09/01 01:32:54;;;;;;;20.15;7.07;;;16.20;99.90;;;;;;5052707;28;20087;-81
2021/09/01 01:35:31;;;;;;;22.83;7.75;;;16.20;99.90;;;;;;5052893;28;20048;-81
2021/09/01 01:37:59;;;;;;;24.80;7.97;;;16.20;99.90;;;;;;5051345;28;20447;-81
2021/09/01 01:40:25;;;;;;;22.20;6.68;;;16.10;99.90;;;;;;5052860;28;20021;-81
2021/09/01 01:42:53;;;;;;;22.15;7.50;;;16.30;99.90;;;;;;5052819;28;20033;-80
2021/09/01 01:45:23;;;;;;;22.38;7.63;;;16.30;99.90;;;;;;5051537;28;20373;-80
2021/09/01 01:47:49;;;;;;;21.38;7.72;;;16.20;99.90;;;;;;5052836;28;20069;-81
2021/09/01 01:50:15;;;;;;;;;;;16.00;99.90;;;;;;5053399;28;20021;-81
2021/09/01 01:52:41;;;;;;;23.55;7.63;;;16.00;99.90;;;;;;5051459;28;20356;-81
2021/09/01 01:55:08;;;;;;;;;;;16.00;99.90;;;;;;5053138;28;20036;-80
2021/09/01 01:57:34;;;;;;;19.23;8.02;;;15.90;99.90;;;;;;5052711;28;19905;-80
2021/09/01 01:59:59;;;;;;;;;;;15.80;99.90;;;;;;5052138;28;20036;-80
2021/09/01 02:02:30;;;;;;;23.05;7.53;;;15.90;99.90;;;;;;5052710;28;19988;-81
2021/09/01 02:04:57;;;;;;;17.65;7.70;;;15.90;99.90;;;;;;5051102;28;20049;-80
2021/09/01 02:07:23;;;;;;;23.05;7.93;;;15.80;99.90;;;;;;5053593;28;20175;-82
2021/09/01 02:09:48;;;;;;;;;;;15.80;99.90;;;;;;5056771;28;20021;-81
2021/09/01 02:12:14;;;;;;;21.35;8.07;;;15.80;99.90;;;;;;5056534;28;19963;-81
2021/09/01 02:14:40;;;;;;;;;;;15.90;99.90;;;;;;5056666;28;20389;-81
2021/09/01 02:17:05;;;;;;;19.00;6.38;;;15.90;99.90;;;;;;5056226;28;19904;-81
2021/09/01 02:19:31;;;;;;;;;;;16.00;99.90;;;;;;5056603;28;20024;-80
2021/09/01 02:21:57;;;;;;;17.65;6.55;;;16.10;99.90;;;;;;5056277;28;19905;-81
2021/09/01 02:24:22;;;;;;;21.13;8.02;;;16.00;99.90;;;;;;5055948;28;20428;-80
2021/09/01 02:26:48;;;;;;;19.58;7.53;;;15.90;99.90;;;;;;5056018;28;20032;-80
2021/09/01 02:29:14;;;;;;;17.83;7.00;;;15.90;99.90;;;;;;5056010;28;20066;-81
2021/09/01 02:31:39;;;;;;;;;;;15.80;99.90;;;;;;5056367;28;20025;-80
2021/09/01 02:34:05;;;;;;;21.02;7.22;;;15.80;99.90;;;;;;5054562;28;19959;-81
2021/09/01 02:36:31;;;;;;;;;;;15.80;99.90;;;;;;5056309;28;20032;-81
2021/09/01 02:38:56;;;;;;;;;;;15.70;99.90;;;;;;5056225;28;19912;-80
2021/09/01 02:41:23;;;;;;;;;;;15.50;99.90;;;;;;5056182;28;20359;-82
2021/09/01 02:43:50;;;;;;;19.38;7.85;;;15.40;99.90;;;;;;5055623;28;19909;-80
2021/09/01 02:46:17;;;;;;;23.63;7.45;;;15.50;99.90;;;;;;5054384;28;20116;-80
2021/09/01 02:48:43;;;;;;;17.55;7.55;;;15.50;99.90;;;;;;5055607;28;20017;-80
2021/09/01 02:51:09;;;;;;;22.13;8.30;;;15.50;99.90;;;;;;5055514;28;20033;-81
2021/09/01 02:53:34;;;;;;;;;;;15.50;99.90;;;;;;5056008;28;20418;-81
2021/09/01 02:56:00;;;;;;;19.70;7.03;;;15.50;99.90;;;;;;5055484;28;19970;-81
2021/09/01 02:58:26;;;;;;;18.48;6.68;;;15.40;99.90;;;;;;5054218;28;20052;-81
2021/09/01 03:00:52;;;;;;;;;;;15.40;99.90;;;;;;5055816;28;20397;-80
2021/09/01 03:03:17;;;;;;;19.35;6.68;;;15.50;99.90;;;;;;5055109;28;19939;-80
2021/09/01 03:05:43;;;;;;;18.40;7.70;;;15.50;99.90;;;;;;5055307;28;20029;-81
2021/09/01 03:08:09;;;;;;;;;;;15.40;99.90;;;;;;5055733;28;20105;-81
2021/09/01 03:10:35;;;;;;;16.30;6.57;;;15.50;99.90;;;;;;5055321;28;19974;-81
2021/09/01 03:13:00;;;;;;;19.83;7.05;;;15.40;99.90;;;;;;5055206;28;20096;-81
2021/09/01 03:15:26;;;;;;;;;;;15.60;99.90;;;;;;5055564;28;20079;-80
2021/09/01 03:17:52;;;;;;;18.80;7.50;;;15.70;99.90;;;;;;5055151;28;20361;-80
2021/09/01 03:20:18;;;;;;;19.38;6.80;;;15.50;99.90;;;;;;5055056;28;20052;-80
2021/09/01 03:22:43;;;;;;;;;;;15.50;99.90;;;;;;5055452;28;20032;-80
2021/09/01 03:25:09;;;;;;;18.58;6.32;;;15.40;99.90;;;;;;5053488;28;20339;-80
2021/09/01 03:27:35;;;;;;;;;;;15.30;99.90;;;;;;5055284;28;20107;-82
2021/09/01 03:30:01;;;;;;;15.45;6.45;;;15.30;99.90;;;;;;5054799;28;20314;-80
2021/09/01 03:32:26;;;;;;;;;;;15.50;99.90;;;;;;5053892;28;20107;-80
2021/09/01 03:34:52;;;;;;;20.48;6.75;;;15.40;99.90;;;;;;5054882;28;20260;-80
2021/09/01 03:37:18;;;;;;;23.42;7.53;;;15.40;99.90;;;;;;5054744;28;20021;-81
2021/09/01 03:39:43;;;;;;;;;;;15.30;99.90;;;;;;5055323;28;20477;-80
2021/09/01 03:42:09;;;;;;;21.27;7.70;;;15.20;99.90;;;;;;5054738;28;20289;-80
2021/09/01 03:44:35;;;;;;;19.17;6.30;;;15.00;99.90;;;;;;5054510;28;20025;-81
2021/09/01 03:47:00;;;;;;;16.48;6.47;;;15.10;99.90;;;;;;5054673;28;20117;-80
2021/09/01 03:49:26;;;;;;;20.10;7.70;;;14.80;99.90;;;;;;5054493;28;20013;-81
2021/09/01 03:51:52;;;;;;;18.83;7.15;;;14.80;99.90;;;;;;5054438;28;20036;-81
2021/09/01 03:54:18;;;;;;;20.00;7.72;;;14.70;99.90;;;;;;5054527;28;20374;-80
2021/09/01 03:56:43;;;;;;;;;;;14.60;99.90;;;;;;5054782;28;20039;-80
2021/09/01 03:59:09;;;;;;;19.38;6.97;;;14.70;99.90;;;;;;5054312;28;19916;-82
2021/09/01 04:01:35;;;;;;;;;;;14.90;99.90;;;;;;5054696;28;20025;-80
2021/09/01 04:04:04;;;;;;;16.48;6.50;;;14.90;99.90;;;;;;5054226;28;19965;-81
2021/09/01 04:06:30;;;;;;;15.70;6.72;;;15.10;99.90;;;;;;5054150;28;20050;-81
2021/09/01 04:08:56;;;;;;;20.10;7.30;;;15.10;99.90;;;;;;5052826;28;20025;-80
2021/09/01 04:11:22;;;;;;;;;;;15.20;99.90;;;;;;5054483;28;20032;-79
2021/09/01 04:13:48;;;;;;;20.90;6.28;;;15.10;99.90;;;;;;5054036;28;20368;-81
2021/09/01 04:16:13;;;;;;;15.65;6.65;;;14.90;99.90;;;;;;5053983;28;20105;-80
2021/09/01 04:18:39;;;;;;;14.68;6.05;;;15.00;99.90;;;;;;5054067;28;20104;-80
2021/09/01 04:21:05;;;;;;;16.75;5.70;;;15.10;99.90;;;;;;5053880;28;20067;-80
2021/09/01 04:23:32;;;;;;;17.40;6.40;;;15.00;99.90;;;;;;5053810;28;20025;-81
2021/09/01 04:25:58;;;;;;;19.27;6.47;;;14.80;99.90;;;;;;5053687;28;20045;-80
2021/09/01 04:28:24;;;;;;;;;;;14.70;99.90;;;;;;5054167;28;20068;-81
2021/09/01 04:30:50;;;;;;;16.40;6.70;;;14.80;99.90;;;;;;5053158;28;19944;-81
2021/09/01 04:33:15;;;;;;;18.15;7.07;;;14.50;99.90;;;;;;5053720;28;20021;-81
2021/09/01 04:35:41;;;;;;;23.80;6.85;;;14.60;99.90;;;;;;5053630;28;20482;-80
2021/09/01 04:38:07;;;;;;;18.67;7.68;;;14.60;99.90;;;;;;5053932;28;20477;-81
2021/09/01 04:40:33;;;;;;;18.95;7.53;;;14.40;99.90;;;;;;5052238;28;20082;-81
2021/09/01 04:42:59;;;;;;;18.15;7.68;;;14.50;99.90;;;;;;5053544;28;20055;-80
2021/09/01 04:45:25;;;;;;;17.80;8.18;;;14.50;99.90;;;;;;5053460;28;20043;-81
2021/09/01 04:47:51;;;;;;;16.67;6.65;;;14.50;99.90;;;;;;5053470;28;20017;-81
2021/09/01 04:50:16;;;;;;;19.00;7.95;;;14.50;99.90;;;;;;5053448;28;20477;-80
2021/09/01 04:52:42;;;;;;;14.60;7.10;;;14.50;99.90;;;;;;5053363;28;20044;-80
2021/09/01 04:55:09;;;;;;;17.63;7.18;;;14.60;99.90;;;;;;5053325;28;20409;-80
2021/09/01 04:57:35;;;;;;;23.00;8.45;;;14.50;99.90;;;;;;5053235;28;20024;-81
2021/09/01 05:00:01;;;;;;;;;;;14.50;99.90;;;;;;5053818;28;20024;-80
2021/09/01 05:02:26;;;;;;;20.77;8.38;;;14.30;99.90;;;;;;5053470;28;19905;-81
2021/09/01 05:04:52;;;;;;;24.30;10.18;;;14.30;99.90;;;;;;5052966;28;20045;-81
2021/09/01 05:07:18;;;;;;;19.30;8.32;;;14.30;99.90;;;;;;5053226;28;20100;-81
2021/09/01 05:09:43;;;;;;;19.73;9.23;;;14.30;99.90;;;;;;5053163;28;20013;-80
2021/09/01 05:12:10;;;;;;;22.13;8.98;;;14.30;99.90;;;;;;5051869;28;20029;-81
2021/09/01 05:14:36;;;;;;;20.60;9.32;;;14.20;99.90;;;;;;5053101;28;20075;-81
2021/09/01 05:17:01;;;;;;;;;;;14.40;99.90;;;;;;5053619;28;20024;-81
2021/09/01 05:19:27;;;;;;;;;;;14.40;99.90;;;;;;5052172;28;19931;-79
2021/09/01 05:21:54;;;;;;;;;;;14.40;99.90;;;;;;5053554;28;19936;-80
2021/09/01 05:24:45;;;;;;;21.45;9.18;;;14.50;99.90;;;;;;5051602;28;19909;-80
2021/09/01 05:27:22;;;;;;;22.25;9.80;;;14.40;99.90;;;;;;5053215;28;20044;-80
2021/09/01 05:29:50;;;;;;;19.75;9.20;;;14.40;99.90;;;;;;5053197;28;20374;-81
2021/09/01 05:32:29;;;;;;;21.55;9.68;;;14.40;99.90;;;;;;5053007;28;20045;-81
2021/09/01 05:34:59;;;;;;;26.60;10.20;;;14.70;99.90;;;;;;5051703;28;20035;-81
2021/09/01 05:37:25;;;;;;;25.58;11.10;;;14.80;99.90;;;;;;5053246;28;20117;-81
2021/09/01 05:39:53;;;;;;;28.10;11.27;;;14.70;99.90;;;;;;5052872;28;20389;-80
2021/09/01 05:42:21;;;;;;;20.35;10.75;;;14.70;99.90;;;;;;5055484;28;20111;-81
2021/09/01 05:44:47;;;;;;;29.48;10.85;;;14.80;99.90;;;;;;5056927;28;20397;-81
2021/09/01 05:47:15;;;;;;;21.40;10.55;;;14.80;99.90;;;;;;5056861;28;20055;-79
2021/09/01 05:49:43;;;;;;;22.45;10.85;;;14.90;99.90;;;;;;5056645;28;20048;-80
2021/09/01 05:52:09;;;;;;;22.73;11.30;;;15.00;99.90;;;;;;5056688;28;20105;-80
2021/09/01 05:54:35;;;;;;;23.40;11.00;;;14.90;99.90;;;;;;5056619;28;20028;-80
2021/09/01 05:57:07;;;;;;;27.20;12.20;;;15.00;99.90;;;;;;5056712;28;20107;-81
2021/09/01 05:59:47;;;;;;;21.92;10.38;;;15.00;99.90;;;;;;5056600;28;20025;-81
2021/09/01 06:02:21;;;;;;;24.08;11.55;;;15.10;99.90;;;;;;5056789;28;20427;-80
2021/09/01 06:04:48;;;;;;;22.45;10.95;;;15.20;99.90;;;;;;5056306;28;20045;-81
2021/09/01 06:07:18;;;;;;;27.58;11.52;;;15.20;99.90;;;;;;5056489;28;20025;-81
2021/09/01 06:09:46;;;;;;;29.95;12.70;;;15.20;99.90;;;;;;5056426;28;20032;-80
2021/09/01 06:12:21;;;;;;;24.95;12.20;;;15.20;99.90;;;;;;5056527;28;20018;-80
2021/09/01 06:14:47;;;;;;;24.60;11.50;;;15.20;99.90;;;;;;5056409;28;20040;-81
2021/09/01 06:17:13;;;;;;;23.33;11.82;;;15.20;99.90;;;;;;5056310;28;20021;-81
2021/09/01 06:19:39;;;;;;;;;;;15.40;99.90;;;;;;5056602;28;20033;-81
2021/09/01 06:22:05;;;;;;;30.08;12.82;;;15.50;99.90;;;;;;5056130;28;20373;-81
2021/09/01 06:24:34;;;;;;;24.55;11.68;;;15.90;99.90;;;;;;5056208;28;20029;-81
2021/09/01 06:27:01;;;;;;;22.67;10.68;;;16.20;99.90;;;;;;5056105;28;20076;-81
2021/09/01 06:29:27;;;;;;;19.35;9.90;;;16.40;99.90;;;;;;5054735;28;20055;-81
2021/09/01 06:31:54;;;;;;;25.08;10.90;;;16.70;99.90;;;;;;5055940;28;20029;-81
2021/09/01 06:34:20;;;;;;;21.33;9.93;;;16.90;99.90;;;;;;5055901;28;20052;-81
2021/09/01 06:36:46;;;;;;;25.67;10.57;;;17.10;99.90;;;;;;5055880;28;20060;-81
2021/09/01 06:39:12;;;;;;;20.67;10.23;;;17.50;99.90;;;;;;5055797;28;20021;-82
2021/09/01 06:41:38;;;;;;;19.90;10.50;;;17.50;99.90;;;;;;5055908;28;20389;-82
2021/09/01 06:44:04;;;;;;;21.63;10.15;;;17.70;99.90;;;;;;5055488;28;20508;-81
2021/09/01 06:46:30;;;;;;;23.33;9.77;;;18.00;99.90;;;;;;5055731;28;20104;-82
2021/09/01 06:48:55;;;;;;;20.83;9.70;;;18.20;99.90;;;;;;5054338;28;20440;-81
2021/09/01 06:51:21;;;;;;;22.27;11.20;;;18.50;99.90;;;;;;5055581;28;20020;-81
2021/09/01 06:53:47;;;;;;;20.25;10.95;;;18.20;99.90;;;;;;5054925;28;20482;-81
2021/09/01 06:56:13;;;;;;;18.40;10.50;;;18.00;99.90;;;;;;5055583;28;20143;-81
2021/09/01 06:58:39;;;;;;;22.80;10.90;;;18.10;99.90;;;;;;5054106;28;20167;-82
2021/09/01 07:01:05;;;;;;;20.42;10.00;;;18.10;99.90;;;;;;5055590;28;20025;-81
2021/09/01 07:03:30;;;;;;;19.77;10.93;;;18.50;99.90;;;;;;5055145;28;20049;-81
2021/09/01 07:05:56;;;;;;;21.17;11.25;;;19.00;99.90;;;;;;5055423;28;20589;-81
2021/09/01 07:08:23;;;;;;;22.13;11.65;;;19.10;99.90;;;;;;5055303;28;20024;-81
2021/09/01 07:10:50;;;;;;;19.13;10.25;;;18.90;99.90;;;;;;5053924;28;20023;-80
2021/09/01 07:13:16;;;;;;;21.90;11.95;;;19.00;99.90;;;;;;5055126;28;20027;-81
2021/09/01 07:15:42;;;;;;;23.17;10.82;;;19.10;99.90;;;;;;5053896;28;20116;-81
2021/09/01 07:18:09;;;;;;;21.73;11.43;;;19.40;99.90;;;;;;5055079;28;20013;-80
2021/09/01 07:20:35;;;;;;;22.42;11.60;;;19.90;99.90;;;;;;5055038;28;20035;-82
2021/09/01 07:23:01;;;;;;;19.15;11.65;;;19.90;99.90;;;;;;5055154;28;20021;-82
2021/09/01 07:25:27;;;;;;;19.58;11.65;;;20.10;99.90;;;;;;5053551;28;20036;-82
2021/09/01 07:27:52;;;;;;;20.85;11.52;;;20.30;99.90;;;;;;5054890;28;20389;-81
2021/09/01 07:30:18;;;;;;;21.10;11.55;;;20.60;99.90;;;;;;5054877;28;20025;-82
2021/09/01 07:32:44;;;;;;;19.88;11.68;;;20.90;99.90;;;;;;5053493;28;20432;-81
2021/09/01 07:35:11;;;;;;;18.35;10.80;;;21.10;99.90;;;;;;5054888;28;20032;-82
2021/09/01 07:37:49;;;;;;;20.80;11.00;;;21.50;99.90;;;;;;5054732;28;20025;-83
2021/09/01 07:40:16;;;;;;;26.17;12.35;;;21.50;99.90;;;;;;5053396;28;20029;-81
2021/09/01 07:42:45;;;;;;;20.52;11.63;;;21.70;99.90;;;;;;5053328;28;20021;-81
2021/09/01 07:45:13;;;;;;;20.30;11.48;;;21.90;99.90;;;;;;5054442;28;20473;-83
2021/09/01 07:48:05;;;;;;;17.42;10.55;;;22.00;99.90;;;;;;5054497;28;20060;-82
2021/09/01 07:50:32;;;;;;;17.35;10.82;;;22.70;99.90;;;;;;5054188;28;20048;-81
2021/09/01 07:52:58;;;;;;;20.50;11.57;;;23.10;99.90;;;;;;5053176;28;20017;-79
2021/09/01 07:55:25;;;;;;;21.73;11.90;;;23.30;99.20;;;;;;5054406;28;20032;-80
2021/09/01 07:57:51;;;;;;;17.67;11.63;;;23.00;99.10;;;;;;5053035;28;20025;-80
2021/09/01 08:00:17;;;;;;;18.52;10.85;;;22.70;99.90;;;;;;5054316;28;20032;-79
2021/09/01 08:02:44;;;;;;;20.30;11.85;;;23.10;99.60;;;;;;5052922;28;20082;-79
2021/09/01 08:05:10;;;;;;;18.98;11.32;;;23.70;98.30;;;;;;5052889;28;20570;-80
2021/09/01 08:07:36;;;;;;;22.70;11.75;;;24.20;97.30;;;;;;5052842;28;20039;-80
2021/09/01 08:10:03;;;;;;;17.00;10.57;;;24.30;96.80;;;;;;5054054;28;20481;-79
2021/09/01 08:12:28;;;;;;;16.67;11.25;;;25.00;96.00;;;;;;5054040;28;20100;-80
2021/09/01 08:14:55;;;;;;;20.83;12.50;;;25.00;94.60;;;;;;5054360;28;20048;-79
2021/09/01 08:17:21;;;;;;;20.40;11.77;;;24.20;96.00;;;;;;5053956;28;20545;-79
2021/09/01 08:19:47;;;;;;;18.77;12.30;;;24.40;96.00;;;;;;5052622;28;20116;-79
2021/09/01 08:22:13;;;;;;;16.83;11.52;;;24.30;96.70;;;;;;5053888;28;20028;-79
2021/09/01 08:24:40;;;;;;;16.20;10.07;;;25.20;95.70;;;;;;5052398;28;20056;-79
2021/09/01 08:27:08;;;;;;;23.98;11.43;;;26.50;93.50;;;;;;5053761;28;20065;-80
2021/09/01 08:29:34;;;;;;;20.73;11.52;;;26.10;93.10;;;;;;5052508;28;20116;-79
2021/09/01 08:32:00;;;;;;;16.50;10.98;;;26.60;92.60;;;;;;5053704;28;20075;-80
2021/09/01 08:34:26;;;;;;;19.48;11.85;;;25.70;92.90;;;;;;5052329;28;20036;-80
2021/09/01 08:36:52;;;;;;;20.58;11.90;;;26.70;91.80;;;;;;5052328;28;20025;-80
2021/09/01 08:39:18;;;;;;;19.02;12.35;;;27.90;90.30;;;;;;5053559;28;20104;-80
2021/09/01 08:41:43;;;;;;;20.42;10.23;;;28.30;87.10;;;;;;5053708;28;20017;-80
2021/09/01 08:44:09;;;;;;;22.20;11.77;;;29.60;86.30;;;;;;5053418;28;20123;-80
2021/09/01 08:46:35;;;;;;;17.85;11.07;;;30.20;79.30;;;;;;5053940;28;20070;-80
2021/09/01 08:49:03;;;;;;;20.95;10.70;;;30.20;78.30;;;;;;5053596;28;20033;-79
2021/09/01 08:51:30;;;;;;;18.08;11.18;;;30.30;77.40;;;;;;5052108;28;20017;-80
2021/09/01 08:53:57;;;;;;;18.25;10.63;;;29.50;76.70;;;;;;5052114;28;20119;-80
2021/09/01 08:56:24;;;;;;;18.15;11.90;;;27.60;79.90;;;;;;5053310;28;20057;-80
2021/09/01 08:58:50;;;;;;;16.90;10.15;;;26.40;83.80;;;;;;5053437;28;20037;-79
2021/09/01 09:01:42;;;;;;;20.80;11.82;;;26.50;85.10;;;;;;5053286;28;20027;-79
2021/09/01 09:04:21;;;;;;;16.13;10.63;;;27.70;85.60;;;;;;5052931;28;20040;-79
2021/09/01 09:06:52;;;;;;;19.65;9.45;;;30.10;76.70;;;;;;5051678;28;20021;-81
2021/09/01 09:09:23;;;;;;;16.58;10.65;;;31.60;71.60;;;;;;5053376;28;20049;-81
2021/09/01 09:11:49;;;;;;;17.20;9.63;;;32.50;65.80;;;;;;5053139;28;20083;-80
2021/09/01 09:14:20;;;;;;;16.95;10.68;;;32.10;66.30;;;;;;5053154;28;20539;-80
2021/09/01 09:16:46;;;;;;;15.82;9.60;;;31.00;64.40;;;;;;5052979;28;20096;-79
2021/09/01 09:19:13;;;;;;;15.45;9.90;;;31.10;69.00;;;;;;5053117;28;20052;-81
2021/09/01 09:21:39;;;;;;;15.23;8.95;;;32.00;64.90;;;;;;5053067;28;20017;-81
2021/09/01 09:24:19;;;;;;;17.40;10.05;;;32.60;61.60;;;;;;5052923;28;20104;-81
2021/09/01 09:26:45;;;;;;;23.67;9.70;;;32.00;62.00;;;;;;5051772;28;20035;-80
2021/09/01 09:29:17;;;;;;;14.95;8.23;;;31.60;63.50;;;;;;5052973;28;20370;-80
2021/09/01 09:31:58;;;;;;;18.90;9.55;;;30.90;64.90;;;;;;5053021;28;20032;-80
2021/09/01 09:34:36;;;;;;;18.50;10.20;;;30.30;66.20;;;;;;5053258;28;20465;-79
2021/09/01 09:37:06;;;;;;;18.45;9.50;;;28.70;67.50;;;;;;5051431;28;20021;-79
2021/09/01 09:39:47;;;;;;;18.33;9.40;;;29.20;68.90;;;;;;5051628;28;20033;-80
2021/09/01 09:42:33;;;;;;;20.15;10.18;;;31.40;65.50;;;;;;5051617;28;20108;-80
2021/09/01 09:45:18;;;;;;;16.27;9.18;;;33.30;59.70;;;;;;5053051;28;20064;-80
2021/09/01 09:47:48;;;;;;;16.58;9.30;;;32.30;60.90;;;;;;5052840;28;20478;-81
2021/09/01 09:50:14;;;;;;;18.98;8.70;;;31.60;61.80;;;;;;5051531;28;20532;-80
2021/09/01 09:52:40;;;;;;;16.13;8.80;;;33.60;57.70;;;;;;5052686;28;20026;-78
2021/09/01 09:55:15;;;;;;;16.13;8.90;;;30.40;60.80;;;;;;5052762;28;20029;-79
2021/09/01 09:57:57;;;;;;;;;;;30.10;66.40;;;;;;5053141;28;20025;-80
2021/09/01 10:00:24;;;;;;;16.67;9.23;;;30.20;62.90;;;;;;5052710;28;19950;-79
2021/09/01 10:02:51;;;;;;;27.00;9.45;;;30.80;62.80;;;;;;5051397;28;20168;-82
2021/09/01 10:05:19;;;;;;;19.00;9.18;;;35.30;56.70;;;;;;5051146;28;20037;-80
2021/09/01 10:07:47;;;;;;;17.10;8.93;;;38.10;51.40;;;;;;5052638;28;20484;-81
2021/09/01 10:10:14;;;;;;;14.13;8.10;;;38.10;48.60;;;;;;5051327;28;20158;-80
2021/09/01 10:12:43;;;;;;;18.60;8.70;;;36.80;49.40;;;;;;5052466;28;20449;-80
2021/09/01 10:15:35;;;;;;;29.80;9.70;;;35.00;51.20;;;;;;5052770;28;20021;-80
2021/09/01 10:18:05;;;;;;;18.90;9.60;;;34.50;51.50;;;;;;5052635;28;20022;-81
2021/09/01 10:20:32;;;;;;;15.18;8.38;;;32.40;55.40;;;;;;5052513;28;20013;-81
2021/09/01 10:23:03;;;;;;;17.20;8.93;;;29.90;58.60;;;;;;5051216;28;20032;-80
2021/09/01 10:25:43;;;;;;;18.70;9.10;;;29.70;59.30;;;;;;5051109;28;20378;-80
2021/09/01 10:28:38;;;;;;;14.52;8.80;;;30.90;60.90;;;;;;5053092;28;20036;-80
2021/09/01 10:31:26;;;;;;;18.90;8.60;;;34.40;54.70;;;;;;5056138;28;20032;-81
2021/09/01 10:34:00;;;;;;;15.00;7.85;;;38.60;47.90;;;;;;5054576;28;20078;-81
2021/09/01 10:36:28;;;;;;;16.27;8.20;;;38.50;46.90;;;;;;5054304;28;20383;-80
2021/09/01 10:39:16;;;;;;;16.15;8.13;;;37.80;45.80;;;;;;5055880;28;20025;-81
2021/09/01 10:41:42;;;;;;;13.88;8.30;;;37.80;45.40;;;;;;5055954;28;20025;-80
2021/09/01 10:44:11;;;;;;;18.67;8.98;;;40.30;44.60;;;;;;5055813;28;20049;-81
2021/09/01 10:46:52;;;;;;;21.42;9.35;;;42.10;42.30;;;;;;5055674;28;20116;-81
2021/09/01 10:49:19;;;;;;;15.20;8.30;;;41.90;42.20;;;;;;5055639;28;20025;-81
2021/09/01 10:51:53;;;;;;;13.77;7.93;;;39.50;43.40;;;;;;5054381;28;20448;-81
2021/09/01 10:54:30;;;;;;;13.73;8.30;;;38.60;43.00;;;;;;5055596;28;20039;-81
2021/09/01 10:56:58;;;;;;;18.83;8.85;;;41.70;41.90;;;;;;5056041;28;20021;-81
2021/09/01 10:59:29;;;;;;;15.40;8.77;;;42.50;40.80;;;;;;5055669;28;20037;-81
2021/09/01 11:02:09;;;;;;;12.70;7.65;;;40.70;40.60;;;;;;5054135;28;20055;-81
2021/09/01 11:04:48;;;;;;;13.43;8.50;;;40.80;42.00;;;;;;5053867;28;20106;-82
2021/09/01 11:07:22;;;;;;;14.55;8.60;;;42.80;40.10;;;;;;5055373;28;20017;-81
2021/09/01 11:09:59;;;;;;;16.73;8.10;;;42.40;39.80;;;;;;5054006;28;20473;-82
2021/09/01 11:12:27;;;;;;;13.77;8.50;;;42.10;38.90;;;;;;5055446;28;20026;-81
2021/09/01 11:14:54;;;;;;;13.27;8.73;;;42.60;39.30;;;;;;5055098;28;20021;-82
2021/09/01 11:17:27;;;;;;;15.75;7.45;;;43.00;37.80;;;;;;5055171;28;20059;-81
2021/09/01 11:20:00;;;;;;;11.93;6.97;;;38.60;40.20;;;;;;5055133;28;20474;-80
2021/09/01 11:22:33;;;;;;;16.75;7.50;;;36.30;44.30;;;;;;5053567;28;20025;-80
2021/09/01 11:25:04;;;;;;;12.50;6.45;;;35.40;45.50;;;;;;5055496;28;20066;-81
2021/09/01 11:27:31;;;;;;;17.63;7.82;;;37.70;44.40;;;;;;5053370;28;20025;-80
2021/09/01 11:30:06;;;;;;;13.95;7.65;;;37.80;44.30;;;;;;5055082;28;20025;-80
2021/09/01 11:32:33;;;;;;;12.38;6.50;;;38.20;44.30;;;;;;5054869;28;20055;-81
2021/09/01 11:35:08;;;;;;;12.55;7.43;;;37.60;43.30;;;;;;5054783;28;20036;-81
2021/09/01 11:37:35;;;;;;;13.18;7.32;;;39.40;43.10;;;;;;5055255;28;20021;-80
2021/09/01 11:40:02;;;;;;;16.92;8.07;;;38.50;42.80;;;;;;5054737;28;20021;-81
2021/09/01 11:42:28;;;;;;;14.88;6.78;;;38.70;43.30;;;;;;5053409;28;20500;-82
2021/09/01 11:44:57;;;;;;;12.65;6.32;;;37.80;44.50;;;;;;5054607;28;20095;-80
2021/09/01 11:47:24;;;;;;;21.38;6.88;;;37.40;43.90;;;;;;5054552;28;20021;-81
2021/09/01 11:49:52;;;;;;;13.52;6.78;;;38.30;41.10;;;;;;5054519;28;20520;-80
2021/09/01 11:52:32;;;;;;;14.20;6.78;;;36.40;44.20;;;;;;5054408;28;20104;-81
2021/09/01 11:54:58;;;;;;;12.70;7.00;;;35.50;44.80;;;;;;5053065;28;20029;-81
2021/09/01 11:57:24;;;;;;;15.18;6.47;;;37.00;44.10;;;;;;5054461;28;20025;-82
2021/09/01 11:59:50;;;;;;;12.90;6.63;;;33.90;46.00;;;;;;5054346;28;20033;-81
2021/09/01 12:02:23;;;;;;;11.45;6.05;;;36.30;45.40;;;;;;5054293;28;20481;-80
2021/09/01 12:04:50;;;;;;;14.90;6.50;;;35.60;44.50;;;;;;5054036;28;20056;-80
2021/09/01 12:07:26;;;;;;;14.55;6.97;;;34.00;46.00;;;;;;5054152;28;20446;-82
2021/09/01 12:09:57;;;;;;;13.68;6.50;;;38.10;44.70;;;;;;5054261;28;20117;-80
2021/09/01 12:12:30;;;;;;;12.13;6.13;;;40.90;42.20;;;;;;5053976;28;20446;-81
2021/09/01 12:15:13;;;;;;;12.80;5.60;;;40.70;39.10;;;;;;5054040;28;20083;-80
2021/09/01 12:17:58;;;;;;;16.27;7.03;;;38.70;40.90;;;;;;5054032;28;20029;-81
2021/09/01 12:20:24;;;;;;;18.45;6.85;;;42.10;39.60;;;;;;5053958;28;20405;-81
2021/09/01 12:22:50;;;;;;;18.13;7.35;;;43.00;39.40;;;;;;5053822;28;20028;-81
2021/09/01 12:25:24;;;;;;;12.32;6.38;;;44.50;37.30;;;;;;5052512;28;20024;-82
2021/09/01 12:28:07;;;;;;;16.92;7.18;;;43.80;37.60;;;;;;5052498;28;20037;-81
2021/09/01 12:30:35;;;;;;;13.43;6.18;;;43.50;38.10;;;;;;5052139;28;20497;-81
2021/09/01 12:33:15;;;;;;;13.65;6.70;;;43.00;38.90;;;;;;5053785;28;20032;-80
2021/09/01 12:35:42;;;;;;;14.85;6.55;;;41.00;40.00;;;;;;5053541;28;20067;-81
2021/09/01 12:38:08;;;;;;;12.93;5.97;;;43.10;38.30;;;;;;5053690;28;20466;-81
2021/09/01 12:40:35;;;;;;;13.85;5.70;;;38.00;39.70;;;;;;5053560;28;20017;-80
2021/09/01 12:43:07;;;;;;;13.52;5.90;;;35.90;42.20;;;;;;5053574;28;20097;-80
2021/09/01 12:45:39;;;;;;;13.32;6.38;;;33.70;45.50;;;;;;5053573;28;20025;-80
2021/09/01 12:48:08;;;;;;;19.40;6.72;;;33.50;47.30;;;;;;5053672;28;20074;-81
2021/09/01 12:50:41;;;;;;;14.52;6.32;;;36.00;46.40;;;;;;5051813;28;20493;-81
2021/09/01 12:53:22;;;;;;;15.90;6.77;;;39.60;42.10;;;;;;5053555;28;20057;-81